Terminal Aerodrome Forecast
Issued by NWS

Current Version | Previous Version | Graphics & Text | Print | Product List | Glossary On
Versions: 1 2 3 4 5 6 7 8 9 10 11 12 13 14 15
000
FTUS41 KILN 171034 AAA
TAFLCK
TAF AMD
KLCK 171034Z 1711/1806 26013G20KT P6SM OVC035
      TEMPO 1711/1715 -SHSN OVC025
     FM171500 27016G27KT P6SM OVC035
     FM172300 28013KT P6SM SCT050
     FM180200 30007KT P6SM SCT250=

USA.gov is the U.S. government's official web portal to all federal, state and local government web resources and services.